Downstream station:
SHEF ID: GCSO2 Cave Springs Br nr South W C
STATION TYPE:
STAGE STAGE(2) RIV-FLOW BAT-LOAD
ft ft cfs volt
Ccp-Rev Ccp-Rev Ccp-Rev Ccp-Rev
(US/Central)
04/03 00:00 2.24 4.67 0 12.41
04/03 01:00 2.14 4.64 0 12.41
04/03 02:00 2.10 4.65 0 12.41
04/03 03:00 2.07 4.65 0 12.41
04/03 04:00 2.09 4.66 0 12.41
04/03 05:00 2.15 4.66 0 12.33
04/03 06:00 2.18 4.67 0 12.33
04/03 07:00 2.19 4.67 0 12.33
04/03 08:00 2.29 4.67 0 12.33
04/03 09:00 2.69 4.66 0 12.41
04/03 10:00 3.21 4.66 0 13.29
04/03 11:00 3.61 4.66 0 13.21
04/03 12:00 3.87 4.66 0 13.21
04/03 13:00 4.07 4.66 0 13.37
04/03 14:00 4.11 4.66 0 13.13
04/03 15:00 4.22 4.64 1 13.21
04/03 16:00 4.10 4.65 0 13.29
04/03 17:00 3.94 4.65 0 13.21
04/03 18:00 3.90 4.65 0 13.21
04/03 19:00 3.81 4.64 0 13.13
04/03 20:00 3.62 4.64 0 12.89
04/03 21:00 3.50 4.63 0 12.65
04/03 22:00 3.44 4.64 0 12.57
04/03 23:00 3.37 4.64 0 12.49